createdAt,value
2022-08-28T00:01:38.657Z,99778.80
2022-08-28T00:04:14.007Z,99781.34
2022-08-28T00:06:43.243Z,99778.88
2022-08-28T00:09:13.619Z,99781.68
2022-08-28T00:11:43.515Z,99780.48
2022-08-28T00:14:14.556Z,99780.39
2022-08-28T00:16:46.717Z,99778.98
2022-08-28T00:19:19.268Z,99777.92
2022-08-28T00:21:48.765Z,99778.65
2022-08-28T00:24:27.280Z,99773.41
2022-08-28T00:27:14.991Z,99773.19
2022-08-28T00:29:51.188Z,99769.54
2022-08-28T00:32:24.093Z,99771.45
2022-08-28T00:34:54.205Z,99768.48
2022-08-28T00:37:24.646Z,99765.77
2022-08-28T00:39:54.971Z,99766.30
2022-08-28T00:42:26.356Z,99769.58
2022-08-28T00:44:56.057Z,99767.30
2022-08-28T00:47:28.581Z,99767.34
2022-08-28T00:50:02.151Z,99767.16
2022-08-28T00:52:32.029Z,99766.36
2022-08-28T00:55:06.650Z,99763.56
2022-08-28T00:57:43.554Z,99767.77
2022-08-28T01:00:18.052Z,99767.66
2022-08-28T01:02:48.425Z,99765.08
2022-08-28T01:05:18.910Z,99765.98
2022-08-28T01:07:53.455Z,99767.51
2022-08-28T01:10:26.633Z,99765.71
2022-08-28T01:12:58.907Z,99765.45
2022-08-28T01:15:34.949Z,99768.24
2022-08-28T01:18:14.376Z,99770.21
2022-08-28T01:20:57.905Z,99772.87
2022-08-28T01:23:49.611Z,99766.80
2022-08-28T01:26:20.230Z,99767.88
2022-08-28T01:28:55.448Z,99768.24
2022-08-28T01:31:26.936Z,99765.05
2022-08-28T01:33:58.754Z,99764.37
2022-08-28T01:36:31.319Z,99764.08
2022-08-28T01:39:10.412Z,99757.88
2022-08-28T01:41:49.914Z,99762.55
2022-08-28T01:44:25.970Z,99760.41
2022-08-28T01:47:00.121Z,99757.69
2022-08-28T01:49:29.829Z,99760.37
2022-08-28T01:51:59.296Z,99764.19
2022-08-28T01:54:29.479Z,99762.86
2022-08-28T01:56:59.718Z,99763.45
2022-08-28T01:59:29.558Z,99763.77
2022-08-28T02:02:03.540Z,99763.13
2022-08-28T02:04:36.270Z,99764.42
2022-08-28T02:07:06.147Z,99765.45
2022-08-28T02:09:39.886Z,99764.40
2022-08-28T02:12:10.723Z,99760.90
2022-08-28T02:14:40.900Z,99757.02
2022-08-28T02:17:12.383Z,99755.14
2022-08-28T02:19:44.474Z,99752.69
2022-08-28T02:22:15.713Z,99750.73
2022-08-28T02:24:45.667Z,99756.50
2022-08-28T02:27:16.877Z,99756.27
2022-08-28T02:29:49.777Z,99753.52
2022-08-28T02:32:19.875Z,99751.55
2022-08-28T02:34:49.842Z,99751.23
2022-08-28T02:37:20.774Z,99750.36
2022-08-28T02:39:57.522Z,99749.74
2022-08-28T02:42:30.611Z,99748.19
2022-08-28T02:45:03.704Z,99751.70
2022-08-28T02:47:33.608Z,99750.73
2022-08-28T02:50:07.589Z,99753.00
2022-08-28T02:52:39.487Z,99752.62
2022-08-28T02:55:13.244Z,99750.36
2022-08-28T02:57:51.377Z,99748.80
2022-08-28T03:00:25.543Z,99746.95
2022-08-28T03:03:12.142Z,99745.56
2022-08-28T03:05:48.054Z,99742.53
2022-08-28T03:08:20.085Z,99740.17
2022-08-28T03:10:56.854Z,99737.63
2022-08-28T03:13:33.943Z,99737.42
2022-08-28T03:16:05.584Z,99735.77
2022-08-28T03:18:37.822Z,99736.67
2022-08-28T03:21:13.890Z,99741.38
2022-08-28T03:23:43.913Z,99738.58
2022-08-28T03:26:19.609Z,99739.37
2022-08-28T03:28:53.211Z,99735.79
2022-08-28T03:31:26.114Z,99737.86
2022-08-28T03:33:57.170Z,99738.54
2022-08-28T03:36:28.768Z,99738.08
2022-08-28T03:39:05.053Z,99738.80
2022-08-28T03:41:37.081Z,99741.31
2022-08-28T03:44:07.434Z,99738.67
2022-08-28T03:46:37.318Z,99741.27
2022-08-28T03:49:12.986Z,99740.13
2022-08-28T03:51:42.956Z,99740.56
2022-08-28T03:54:15.720Z,99736.12
2022-08-28T03:56:47.645Z,99736.33
2022-08-28T03:59:17.523Z,99736.52
2022-08-28T04:01:48.757Z,99737.76
2022-08-28T04:04:21.567Z,99739.60
2022-08-28T04:06:54.743Z,99743.60
2022-08-28T04:09:24.823Z,99746.44
2022-08-28T04:11:55.178Z,99742.91
2022-08-28T04:14:29.686Z,99748.12
2022-08-28T04:17:06.085Z,99751.68
2022-08-28T04:19:36.867Z,99753.77
2022-08-28T04:22:06.900Z,99758.45
2022-08-28T04:24:39.851Z,99757.39
2022-08-28T04:27:09.692Z,99753.38
2022-08-28T04:29:43.577Z,99757.16
2022-08-28T04:32:14.924Z,99760.36
2022-08-28T04:34:44.931Z,99757.95
2022-08-28T04:37:14.926Z,99757.20
2022-08-28T04:39:44.431Z,99756.05
2022-08-28T04:42:16.814Z,99750.12
2022-08-28T04:44:51.270Z,99749.77
2022-08-28T04:47:25.275Z,99749.23
2022-08-28T04:49:56.035Z,99751.38
2022-08-28T04:52:27.327Z,99748.48
2022-08-28T04:54:58.520Z,99751.74
2022-08-28T04:57:36.133Z,99752.36
2022-08-28T05:00:09.478Z,99754.85
2022-08-28T05:02:41.815Z,99754.66
2022-08-28T05:05:14.694Z,99756.09
2022-08-28T05:07:45.003Z,99752.00
2022-08-28T05:10:15.420Z,99753.81
2022-08-28T05:12:50.341Z,99749.15
2022-08-28T05:15:20.643Z,99753.59
2022-08-28T05:17:50.953Z,99756.98
2022-08-28T05:20:20.562Z,99752.69
2022-08-28T05:22:49.688Z,99758.76
2022-08-28T05:25:18.756Z,99754.80
2022-08-28T05:27:54.907Z,99755.02
2022-08-28T05:30:27.903Z,99753.95
2022-08-28T05:33:00.819Z,99758.26
2022-08-28T05:35:34.252Z,99763.55
2022-08-28T05:38:04.189Z,99763.91
2022-08-28T05:40:43.590Z,99764.60
2022-08-28T05:43:16.491Z,99764.73
2022-08-28T05:45:46.558Z,99764.23
2022-08-28T05:48:17.975Z,99768.38
2022-08-28T05:50:51.614Z,99772.82
2022-08-28T05:53:21.307Z,99772.20
2022-08-28T05:55:51.888Z,99767.34
2022-08-28T05:58:35.047Z,99769.21
2022-08-28T06:01:21.522Z,99766.29
2022-08-28T06:04:01.810Z,99765.37
2022-08-28T06:06:38.888Z,99767.00
2022-08-28T06:09:30.185Z,99764.02
2022-08-28T06:12:05.284Z,99765.07
2022-08-28T06:14:35.707Z,99757.96
2022-08-28T06:17:07.963Z,99761.06
2022-08-28T06:19:41.500Z,99762.82
2022-08-28T06:22:18.024Z,99765.31
2022-08-28T06:24:47.459Z,99760.27
2022-08-28T06:27:20.422Z,99764.98
2022-08-28T06:29:50.490Z,99761.05
2022-08-28T06:32:19.806Z,99761.61
2022-08-28T06:34:49.606Z,99760.55
2022-08-28T06:37:20.977Z,99762.50
2022-08-28T06:39:51.309Z,99763.09
2022-08-28T06:42:22.979Z,99761.02
2022-08-28T06:44:52.883Z,99760.27
2022-08-28T06:47:22.682Z,99761.18
2022-08-28T06:49:56.173Z,99758.34
2022-08-28T06:52:32.546Z,99757.29
2022-08-28T06:55:02.643Z,99756.09
2022-08-28T06:57:33.191Z,99752.53
2022-08-28T07:00:06.386Z,99757.75
2022-08-28T07:02:36.122Z,99757.45
2022-08-28T07:05:10.197Z,99758.05
2022-08-28T07:07:39.620Z,99763.59
2022-08-28T07:10:09.101Z,99763.15
2022-08-28T07:12:38.051Z,99759.98
2022-08-28T07:15:11.569Z,99757.21
2022-08-28T07:17:41.013Z,99752.27
2022-08-28T07:20:13.397Z,99751.98
2022-08-28T07:22:42.767Z,99748.23
2022-08-28T07:25:14.323Z,99752.09
2022-08-28T07:27:44.089Z,99758.09
2022-08-28T07:30:16.311Z,99760.58
2022-08-28T07:32:49.956Z,99758.05
2022-08-28T07:35:24.580Z,99758.25
2022-08-28T07:37:54.299Z,99761.23
2022-08-28T07:40:24.267Z,99759.98
2022-08-28T07:43:12.350Z,99763.40
2022-08-28T07:45:43.251Z,99756.13
2022-08-28T07:48:15.007Z,99757.52
2022-08-28T07:50:44.312Z,99756.65
2022-08-28T07:53:14.339Z,99756.43
2022-08-28T07:55:43.769Z,99754.36
2022-08-28T07:58:14.480Z,99754.71
2022-08-28T08:00:48.371Z,99754.58
2022-08-28T08:03:20.194Z,99756.13
2022-08-28T08:05:58.980Z,99758.01
2022-08-28T08:08:29.410Z,99751.99
2022-08-28T08:11:00.311Z,99754.70
2022-08-28T08:13:36.142Z,99751.07
2022-08-28T08:16:14.614Z,99746.02
2022-08-28T08:18:45.262Z,99750.36
2022-08-28T08:21:15.787Z,99752.48
2022-08-28T08:23:46.928Z,99753.56
2022-08-28T08:26:23.412Z,99753.41
2022-08-28T08:28:54.250Z,99755.51
2022-08-28T08:31:28.690Z,99759.81
2022-08-28T08:34:02.565Z,99766.52
2022-08-28T08:36:34.198Z,99762.13
2022-08-28T08:39:06.600Z,99760.02
2022-08-28T08:41:48.433Z,99756.05
2022-08-28T08:44:46.985Z,99754.60
2022-08-28T08:47:50.223Z,99752.02
2022-08-28T08:53:49.714Z,99747.18
2022-08-28T08:56:22.187Z,99747.61
2022-08-28T08:58:54.804Z,99744.02
2022-08-28T09:01:31.636Z,99750.83
2022-08-28T09:04:25.775Z,99755.66
2022-08-28T09:07:01.670Z,99759.75
2022-08-28T09:09:41.632Z,99761.19
2022-08-28T09:12:23.656Z,99761.30
2022-08-28T09:15:14.670Z,99762.16
2022-08-28T09:18:04.332Z,99764.48
2022-08-28T09:20:33.643Z,99768.29
2022-08-28T09:23:12.724Z,99766.02
2022-08-28T09:25:45.284Z,99763.92
2022-08-28T09:28:19.887Z,99757.20
2022-08-28T09:31:19.600Z,99754.73
2022-08-28T09:33:52.290Z,99757.27
2022-08-28T09:36:37.930Z,99758.95
2022-08-28T09:39:24.722Z,99760.38
2022-08-28T09:42:24.825Z,99759.66
2022-08-28T09:44:56.745Z,99762.13
2022-08-28T09:47:46.137Z,99761.54
2022-08-28T09:50:37.970Z,99766.76
2022-08-28T09:53:09.923Z,99770.58
2022-08-28T09:56:11.122Z,99768.37
2022-08-28T09:59:01.539Z,99770.99
2022-08-28T10:01:45.179Z,99770.11
2022-08-28T10:04:51.831Z,99766.04
2022-08-28T10:08:12.987Z,99764.62
2022-08-28T10:10:50.969Z,99759.90
2022-08-28T10:13:40.814Z,99759.67
2022-08-28T10:16:45.737Z,99763.05
2022-08-28T10:19:53.165Z,99754.30
2022-08-28T10:22:47.647Z,99760.36
2022-08-28T10:25:30.676Z,99749.45
2022-08-28T10:28:23.508Z,99747.27
2022-08-28T10:31:10.081Z,99743.20
2022-08-28T10:33:50.505Z,99740.64
2022-08-28T10:36:36.094Z,99741.85
2022-08-28T10:39:43.363Z,99743.64
2022-08-28T10:42:12.394Z,99746.20
2022-08-28T10:45:06.743Z,99748.63
2022-08-28T10:47:55.998Z,99746.70
2022-08-28T10:50:51.635Z,99747.16
2022-08-28T10:53:33.379Z,99745.60
2022-08-28T10:56:11.295Z,99746.21
2022-08-28T10:58:41.717Z,99746.73
2022-08-28T11:01:31.536Z,99746.89
2022-08-28T11:09:31.456Z,99746.03
2022-08-28T11:12:10.124Z,99746.11
2022-08-28T11:14:48.407Z,99747.65
2022-08-28T11:17:28.021Z,99746.77
2022-08-28T11:20:33.156Z,99747.69
2022-08-28T11:23:17.133Z,99743.70
2022-08-28T11:29:05.195Z,99741.32
2022-08-28T11:31:39.716Z,99746.52
2022-08-28T11:34:09.233Z,99746.81
2022-08-28T11:36:38.233Z,99753.30
2022-08-28T11:39:21.775Z,99747.98
2022-08-28T11:42:10.090Z,99749.80
2022-08-28T11:44:41.668Z,99749.59
2022-08-28T11:47:42.665Z,99748.25
2022-08-28T11:50:20.938Z,99744.92
2022-08-28T11:52:56.268Z,99749.33
2022-08-28T11:55:34.297Z,99747.83
2022-08-28T11:58:22.632Z,99748.44
2022-08-28T12:01:06.571Z,99752.75
2022-08-28T12:03:57.298Z,99755.80
2022-08-28T12:06:56.890Z,99759.82
2022-08-28T12:09:43.090Z,99755.98
2022-08-28T12:12:24.570Z,99758.46
2022-08-28T12:14:56.809Z,99760.77
2022-08-28T12:17:43.736Z,99755.61
2022-08-28T12:20:51.633Z,99754.95
2022-08-28T12:23:23.792Z,99756.67
2022-08-28T12:26:02.452Z,99754.86
2022-08-28T12:29:01.882Z,99751.00
2022-08-28T12:32:12.121Z,99753.36
2022-08-28T12:34:53.577Z,99751.81
2022-08-28T12:37:39.503Z,99752.98
2022-08-28T12:40:27.293Z,99747.80
2022-08-28T12:43:01.349Z,99745.90
2022-08-28T12:45:33.235Z,99740.96
2022-08-28T12:48:11.312Z,99744.94
2022-08-28T12:50:41.626Z,99740.84
2022-08-28T12:53:18.350Z,99740.30
2022-08-28T12:55:48.112Z,99741.99
2022-08-28T12:58:40.006Z,99740.61
2022-08-28T13:01:25.222Z,99736.61
2022-08-28T13:04:00.091Z,99733.73
2022-08-28T13:06:40.047Z,99733.66
2022-08-28T13:09:24.392Z,99730.83
2022-08-28T13:12:07.460Z,99728.20
2022-08-28T13:14:37.886Z,99726.36
2022-08-28T13:17:08.769Z,99724.09
2022-08-28T13:19:39.167Z,99722.88
2022-08-28T13:22:41.062Z,99718.67
2022-08-28T13:25:29.235Z,99717.36
2022-08-28T13:28:05.672Z,99711.94
2022-08-28T13:30:36.204Z,99711.92
2022-08-28T13:33:23.075Z,99707.84
2022-08-28T13:36:26.884Z,99707.56
2022-08-28T13:38:56.282Z,99713.42
2022-08-28T13:44:12.248Z,99710.98
2022-08-28T13:46:42.427Z,99710.35
2022-08-28T13:49:11.775Z,99707.31
2022-08-28T13:51:40.905Z,99704.37
2022-08-28T13:54:24.108Z,99704.69
2022-08-28T13:56:55.952Z,99705.95
2022-08-28T13:59:25.536Z,99704.38
2022-08-28T14:02:31.499Z,99709.55
2022-08-28T14:05:00.878Z,99709.73
2022-08-28T14:07:30.713Z,99708.70
2022-08-28T14:09:59.767Z,99702.45
2022-08-28T14:12:33.372Z,99707.15
2022-08-28T14:15:04.155Z,99708.42
2022-08-28T14:17:46.812Z,99706.08
2022-08-28T14:20:16.182Z,99702.46
2022-08-28T14:22:45.581Z,99702.40
2022-08-28T14:25:15.261Z,99703.14
2022-08-28T14:27:44.192Z,99707.21
2022-08-28T14:30:13.889Z,99706.96
2022-08-28T14:32:43.407Z,99709.39
2022-08-28T14:35:12.856Z,99705.53
2022-08-28T14:37:42.109Z,99705.20
2022-08-28T14:40:12.953Z,99705.12
2022-08-28T14:42:42.086Z,99700.81
2022-08-28T14:45:12.629Z,99695.84
2022-08-28T14:47:45.767Z,99696.83
2022-08-28T14:50:31.680Z,99695.48
2022-08-28T14:53:16.176Z,99691.78
2022-08-28T14:55:48.561Z,99691.86
2022-08-28T14:58:19.893Z,99693.09
2022-08-28T15:01:03.546Z,99691.45
2022-08-28T15:03:34.620Z,99692.08
2022-08-28T15:06:09.811Z,99692.01
2022-08-28T15:08:39.958Z,99693.39
2022-08-28T15:11:17.865Z,99692.84
2022-08-28T15:14:01.257Z,99696.98
2022-08-28T15:16:39.359Z,99696.02
2022-08-28T15:19:12.595Z,99696.71
2022-08-28T15:21:46.520Z,99698.48
2022-08-28T15:24:18.876Z,99700.99
2022-08-28T15:26:50.446Z,99706.64
2022-08-28T15:29:21.634Z,99709.44
2022-08-28T15:31:51.579Z,99707.41
2022-08-28T15:34:33.957Z,99706.00
2022-08-28T15:37:04.236Z,99704.55
2022-08-28T15:39:57.274Z,99706.36
2022-08-28T15:42:28.180Z,99706.50
2022-08-28T15:45:00.596Z,99711.06
2022-08-28T15:47:30.817Z,99716.06
2022-08-28T15:50:01.279Z,99721.95
2022-08-28T15:52:30.551Z,99721.08
2022-08-28T15:54:59.943Z,99722.85
2022-08-28T15:57:29.673Z,99723.60
2022-08-28T16:00:02.874Z,99723.91
2022-08-28T16:02:37.598Z,99724.14
2022-08-28T16:05:10.147Z,99722.61
2022-08-28T16:07:40.652Z,99719.89
2022-08-28T16:10:14.023Z,99718.49
2022-08-28T16:12:43.806Z,99713.86
2022-08-28T16:15:21.198Z,99710.85
2022-08-28T16:17:51.173Z,99706.98
2022-08-28T16:20:21.052Z,99707.05
2022-08-28T16:22:52.418Z,99706.70
2022-08-28T16:25:22.859Z,99703.40
2022-08-28T16:27:52.165Z,99709.13
2022-08-28T16:30:25.017Z,99708.73
2022-08-28T16:32:55.022Z,99709.57
2022-08-28T16:35:25.473Z,99712.40
2022-08-28T16:37:54.722Z,99714.63
2022-08-28T16:40:38.513Z,99715.19
2022-08-28T16:43:08.363Z,99714.34
2022-08-28T16:45:38.277Z,99713.35
2022-08-28T16:48:07.953Z,99720.64
2022-08-28T16:50:37.173Z,99718.11
2022-08-28T16:53:07.277Z,99724.29
2022-08-28T16:55:37.976Z,99726.19
2022-08-28T16:58:08.711Z,99722.63
2022-08-28T17:00:44.329Z,99724.33
2022-08-28T17:03:25.811Z,99727.35
2022-08-28T17:05:59.450Z,99730.55
2022-08-28T17:08:28.753Z,99731.77
2022-08-28T17:10:59.988Z,99731.86
2022-08-28T17:13:32.014Z,99733.84
2022-08-28T17:16:03.019Z,99730.05
2022-08-28T17:18:33.017Z,99732.80
2022-08-28T17:21:21.185Z,99733.94
2022-08-28T17:23:51.584Z,99734.34
2022-08-28T17:26:21.935Z,99732.14
2022-08-28T17:28:55.616Z,99729.52
2022-08-28T17:31:29.605Z,99734.73
2022-08-28T17:33:59.006Z,99742.84
2022-08-28T17:36:33.683Z,99755.74
2022-08-28T17:39:07.416Z,99764.61
2022-08-28T17:41:37.620Z,99764.85
2022-08-28T17:44:07.857Z,99766.39
2022-08-28T17:46:48.839Z,99772.13
2022-08-28T17:49:19.052Z,99773.23
2022-08-28T17:51:49.358Z,99775.45
2022-08-28T17:54:23.315Z,99780.48
2022-08-28T17:56:55.320Z,99785.50
2022-08-28T17:59:38.461Z,99791.14
2022-08-28T18:02:08.047Z,99797.05
2022-08-28T18:04:38.127Z,99803.21
2022-08-28T18:07:11.856Z,99813.23
2022-08-28T18:09:41.139Z,99819.48
2022-08-28T18:12:12.937Z,99823.73
2022-08-28T18:14:42.391Z,99833.05
2022-08-28T18:17:16.657Z,99832.70
2022-08-28T18:19:46.465Z,99834.64
2022-08-28T18:22:16.014Z,99833.40
2022-08-28T18:24:45.878Z,99829.78
2022-08-28T18:27:15.800Z,99834.86
2022-08-28T18:29:47.102Z,99832.30
2022-08-28T18:35:02.876Z,99830.67
2022-08-28T18:37:32.044Z,99826.98
2022-08-28T18:40:01.768Z,99824.98
2022-08-28T18:42:35.235Z,99821.78
2022-08-28T18:45:09.120Z,99825.23
2022-08-28T18:47:40.278Z,99825.77
2022-08-28T18:50:12.106Z,99824.73
2022-08-28T18:52:45.819Z,99823.86
2022-08-28T18:55:15.155Z,99817.04
2022-08-28T18:57:47.747Z,99814.45
2022-08-28T19:00:17.742Z,99809.61
2022-08-28T19:02:46.853Z,99808.91
2022-08-28T19:05:17.466Z,99803.43
2022-08-28T19:07:49.219Z,99806.84
2022-08-28T19:10:32.586Z,99814.56
2022-08-28T19:13:04.298Z,99814.70
2022-08-28T19:15:34.887Z,99816.02
2022-08-28T19:18:05.854Z,99823.73
2022-08-28T19:20:35.416Z,99822.48
2022-08-28T19:23:05.617Z,99824.04
2022-08-28T19:25:35.646Z,99823.60
2022-08-28T19:28:05.230Z,99827.77
2022-08-28T19:30:35.430Z,99834.48
2022-08-28T19:33:06.458Z,99837.48
2022-08-28T19:35:36.550Z,99836.77
2022-08-28T19:38:08.958Z,99842.39
2022-08-28T19:40:41.630Z,99842.27
2022-08-28T19:43:14.325Z,99843.63
2022-08-28T19:45:46.843Z,99839.63
2022-08-28T19:48:16.483Z,99840.83
2022-08-28T19:50:46.091Z,99850.45
2022-08-28T19:53:15.852Z,99856.77
2022-08-28T19:55:44.951Z,99874.57
2022-08-28T19:58:13.934Z,99892.31
2022-08-28T20:00:42.661Z,99914.91
2022-08-28T20:03:12.044Z,99933.39
2022-08-28T20:05:41.964Z,99926.16
2022-08-28T20:08:11.179Z,99917.45
2022-08-28T20:10:42.781Z,99928.64
2022-08-28T20:13:12.909Z,99922.55
2022-08-28T20:15:46.493Z,99906.27
2022-08-28T20:31:07.562Z,99911.93
2022-08-28T20:33:37.179Z,99919.03
2022-08-28T20:36:08.153Z,99923.80
2022-08-28T20:38:48.148Z,99933.77
2022-08-28T20:41:21.163Z,99939.37
2022-08-28T20:43:51.716Z,99942.73
2022-08-28T20:46:21.509Z,99946.02
2022-08-28T20:49:05.895Z,99953.88
2022-08-28T20:51:54.708Z,99952.20
2022-08-28T20:54:28.966Z,99953.94
2022-08-28T20:57:02.342Z,99943.48
2022-08-28T20:59:39.243Z,99929.08
2022-08-28T21:02:17.281Z,99924.92
2022-08-28T21:04:48.302Z,99924.19
2022-08-28T21:07:19.849Z,99936.98
2022-08-28T21:10:05.423Z,99956.81
2022-08-28T21:12:50.289Z,99978.66
2022-08-28T21:15:33.234Z,99997.17
2022-08-28T21:18:04.387Z,100007.76
2022-08-28T21:20:34.275Z,100010.41
2022-08-28T21:23:09.879Z,100009.14
2022-08-28T21:25:43.864Z,100011.59
2022-08-28T21:28:13.397Z,100015.02
2022-08-28T21:30:50.389Z,100020.80
2022-08-28T21:33:26.970Z,100024.40
2022-08-28T21:35:59.456Z,100019.09
2022-08-28T21:38:31.503Z,100014.02
2022-08-28T21:41:17.883Z,100023.38
2022-08-28T21:43:48.552Z,100029.25
2022-08-28T21:46:19.903Z,100028.80
2022-08-28T21:48:58.094Z,100030.72
2022-08-28T21:51:27.938Z,100033.08
2022-08-28T21:54:00.536Z,100032.77
2022-08-28T21:56:37.534Z,100034.91
2022-08-28T21:59:07.451Z,100033.66
2022-08-28T22:01:37.566Z,100033.73
2022-08-28T22:04:08.868Z,100032.16
2022-08-28T22:06:44.405Z,100030.88
2022-08-28T22:09:21.125Z,100028.94
2022-08-28T22:11:50.812Z,100017.59
2022-08-28T22:14:25.729Z,100005.20
2022-08-28T22:16:55.434Z,99998.54
2022-08-28T22:19:27.374Z,99994.91
2022-08-28T22:22:23.215Z,99992.99
2022-08-28T22:24:54.775Z,99990.30
2022-08-28T22:27:28.771Z,99987.98
2022-08-28T22:29:59.676Z,99987.84
2022-08-28T22:32:33.680Z,99985.57
2022-08-28T22:35:09.128Z,99987.82
2022-08-28T22:37:43.647Z,99982.22
2022-08-28T22:40:16.321Z,99984.34
2022-08-28T22:42:45.864Z,99985.34
2022-08-28T22:45:22.259Z,99978.73
2022-08-28T22:47:53.520Z,99971.01
2022-08-28T22:50:27.916Z,99964.17
2022-08-28T22:52:59.289Z,99952.36
2022-08-28T22:55:33.319Z,99952.20
2022-08-28T22:58:03.689Z,99950.99
2022-08-28T23:00:48.715Z,99950.27
2022-08-28T23:03:22.282Z,99942.45
2022-08-28T23:05:54.696Z,99948.05
2022-08-28T23:08:33.758Z,99947.98
2022-08-28T23:11:07.135Z,99943.84
2022-08-28T23:13:40.505Z,99941.84
2022-08-28T23:16:12.034Z,99936.70
2022-08-28T23:19:06.720Z,99933.80
2022-08-28T23:21:34.257Z,99931.61
2022-08-28T23:24:04.244Z,99923.48
2022-08-28T23:26:34.678Z,99918.42
2022-08-28T23:29:06.780Z,99915.94
2022-08-28T23:31:40.589Z,99907.80
2022-08-28T23:34:11.677Z,99895.69
2022-08-28T23:36:43.343Z,99890.33
2022-08-28T23:39:17.962Z,99880.20
2022-08-28T23:41:49.932Z,99877.59
2022-08-28T23:44:22.479Z,99886.58
2022-08-28T23:46:55.254Z,99888.12
2022-08-28T23:49:42.809Z,99895.41
2022-08-28T23:52:14.166Z,99902.98
2022-08-28T23:54:46.337Z,99903.59
2022-08-28T23:57:21.237Z,99904.44
2022-08-28T23:59:57.946Z,99901.29
